Eldridge, Missouri
Current Conditions -  °F | °C
As of 11:15 AM on Thursday 27 Nov 2014 (Local Time) from KH21 Reporting Station
Overcast Overcast  
Wind Chill: 32°   Ceiling: 1600
Heat Index: 32°   Visibility: 10mi
Dew Point: 27°   Wind: 0mph
Humidity: 80%   Direction: NA
Pressure: 30.51"   Gusts: NA
Location:  37.83°N, 92.75°W
Report Text: KH21 271715Z AUTO 00000KT 10SM BKN016 OVC085 00/M03 A3051 RMK AO2
Loading
Personal Weather Stations






























Interactive Weather Map New forecast layout! Learn more

10-Day Weather Forecast

Advertisements
Track Severe Weather on mobile